Hlavní strana
METAR-TAF:

METAR-TAF

Letiště :

Brookings, Jižní Dakota, Spojené státy americké

zeměpisná šířka: 44-18N, zeměpisná délka: 096-49W, výška: 502 m

Aktuální stav počasí

Zpráva byla vytvořena před 48 minutami, v 13:56 UTC
Jihovýchodní vítr 8 kt
Teplota 21°C
Vlhkost vzduchu 83%
Tlak 1011 hPa
Viditelnost: 16.1 km
Skoro jasno ve výšce 200 ft

METAR: KBKX 241356Z AUTO 14008KT 10SM FEW002 21/18 A2985 RMK AO2 SLP115 T02060178

Čas: 09:44 (14:44 UTC)


TAF: chybějící

Stav a předpovědi počasí z více než 4 000 letišť (zprávy METAR a TAF).

Červené a žluté tečky na mapě představují dostupné meteorologické stanice.

Když kurzor umístíte na tečku, zobrazí se název stanice.

Pak kliknutím zobrazíte stav a předpověď počasí.

Chcete-li změnit mapu, kliknutím na zelené tlačítko se znaménkem +mapu přiblížíte, kliknutím na zelené tlačítko se znaménkem – mapu oddálíte a kliknutím na zelené šipky přejdete na sousední mapy.


METAR-TAF: